createdAt,value
2022-11-14T00:01:13.193Z,15.60
2022-11-14T00:03:40.150Z,15.07
2022-11-14T00:06:08.722Z,15.30
2022-11-14T00:08:36.396Z,15.40
2022-11-14T00:11:03.708Z,15.30
2022-11-14T00:13:30.678Z,16.20
2022-11-14T00:15:57.562Z,16.50
2022-11-14T00:18:24.974Z,12.80
2022-11-14T00:20:53.851Z,13.00
2022-11-14T00:23:21.637Z,13.90
2022-11-14T00:25:49.301Z,15.60
2022-11-14T00:28:16.944Z,14.83
2022-11-14T00:30:48.620Z,16.33
2022-11-14T00:33:20.266Z,16.17
2022-11-14T00:36:06.337Z,16.30
2022-11-14T00:38:33.242Z,15.60
2022-11-14T00:41:00.252Z,15.43
2022-11-14T00:43:27.226Z,17.00
2022-11-14T00:45:54.171Z,15.57
2022-11-14T00:48:21.186Z,17.80
2022-11-14T00:50:48.183Z,16.07
2022-11-14T00:53:15.328Z,16.27
2022-11-14T00:55:43.864Z,15.60
2022-11-14T00:58:11.061Z,16.20
2022-11-14T01:00:38.615Z,17.07
2022-11-14T01:03:05.721Z,14.93
2022-11-14T01:05:32.825Z,15.77
2022-11-14T01:07:59.776Z,15.97
2022-11-14T01:10:26.711Z,16.20
2022-11-14T01:12:53.635Z,15.67
2022-11-14T01:15:20.686Z,14.83
2022-11-14T01:17:47.632Z,15.73
2022-11-14T01:20:16.387Z,15.13
2022-11-14T01:22:43.349Z,15.17
2022-11-14T01:25:10.648Z,15.60
2022-11-14T01:27:37.673Z,15.60
2022-11-14T01:30:05.712Z,16.47
2022-11-14T01:32:32.763Z,15.33
2022-11-14T01:34:59.711Z,15.50
2022-11-14T01:37:26.601Z,18.30
2022-11-14T01:39:53.581Z,16.97
2022-11-14T01:42:25.974Z,16.37
2022-11-14T01:44:54.263Z,15.70
2022-11-14T01:47:26.417Z,17.57
2022-11-14T01:49:59.346Z,16.33
2022-11-14T01:52:32.356Z,18.53
2022-11-14T01:55:04.162Z,15.27
2022-11-14T01:57:39.241Z,16.57
2022-11-14T02:00:11.385Z,14.77
2022-11-14T02:02:39.163Z,15.87
2022-11-14T02:05:15.753Z,14.60
2022-11-14T02:07:43.232Z,15.73
2022-11-14T02:10:18.812Z,14.27
2022-11-14T02:12:46.512Z,14.97
2022-11-14T02:15:14.705Z,13.30
2022-11-14T02:17:43.759Z,14.80
2022-11-14T02:20:11.525Z,14.77
2022-11-14T02:22:41.875Z,16.63
2022-11-14T02:25:11.492Z,13.80
2022-11-14T02:27:39.991Z,14.87
2022-11-14T02:30:14.137Z,15.17
2022-11-14T02:35:28.076Z,15.77
2022-11-14T02:37:55.066Z,16.90
2022-11-14T02:40:22.035Z,14.40
2022-11-14T02:42:49.158Z,14.90
2022-11-14T02:45:16.076Z,15.30
2022-11-14T02:47:43.081Z,15.33
2022-11-14T02:50:10.666Z,14.97
2022-11-14T02:52:37.630Z,15.87
2022-11-14T02:55:06.540Z,15.97
2022-11-14T02:57:33.516Z,14.57
2022-11-14T03:00:00.499Z,15.23
2022-11-14T03:02:27.458Z,15.00
2022-11-14T03:04:54.540Z,13.40
2022-11-14T03:07:21.554Z,13.50
2022-11-14T03:09:48.588Z,12.30
2022-11-14T03:12:20.176Z,14.90
2022-11-14T03:14:47.181Z,14.53
2022-11-14T03:17:14.176Z,13.70
2022-11-14T03:19:41.108Z,14.87
2022-11-14T03:22:08.283Z,13.93
2022-11-14T03:24:35.240Z,13.57
2022-11-14T03:27:02.226Z,13.63
2022-11-14T03:29:29.391Z,15.50
2022-11-14T03:31:56.265Z,12.90
2022-11-14T03:34:23.168Z,14.10
2022-11-14T03:36:50.146Z,13.07
2022-11-14T03:39:17.077Z,13.80
2022-11-14T03:41:44.048Z,14.50
2022-11-14T03:44:11.199Z,14.00
2022-11-14T03:46:38.208Z,15.90
2022-11-14T03:49:05.780Z,16.07
2022-11-14T03:51:32.734Z,17.23
2022-11-14T03:53:59.630Z,18.30
2022-11-14T03:56:26.587Z,18.40
2022-11-14T03:58:53.573Z,19.53
2022-11-14T04:01:20.695Z,16.70
2022-11-14T04:03:47.678Z,19.60
2022-11-14T04:06:15.436Z,18.67
2022-11-14T04:08:42.412Z,19.17
2022-11-14T04:11:09.712Z,18.13
2022-11-14T04:13:36.799Z,18.20
2022-11-14T04:16:04.657Z,18.00
2022-11-14T04:18:31.755Z,19.17
2022-11-14T04:20:59.160Z,18.97
2022-11-14T04:23:26.123Z,19.53
2022-11-14T04:25:53.139Z,19.50
2022-11-14T04:28:20.130Z,20.20
2022-11-14T04:30:47.067Z,16.97
2022-11-14T04:33:13.988Z,19.77
2022-11-14T04:35:40.879Z,19.77
2022-11-14T04:38:08.191Z,18.43
2022-11-14T04:40:35.115Z,18.97
2022-11-14T04:43:02.041Z,16.77
2022-11-14T04:45:29.012Z,19.17
2022-11-14T04:47:56.018Z,19.10
2022-11-14T04:50:22.918Z,17.37
2022-11-14T04:52:53.901Z,20.47
2022-11-14T04:55:20.842Z,17.57
2022-11-14T04:57:47.934Z,17.73
2022-11-14T05:00:15.650Z,18.23
2022-11-14T05:02:42.609Z,16.93
2022-11-14T05:05:09.794Z,17.73
2022-11-14T05:07:36.793Z,19.30
2022-11-14T05:10:05.204Z,17.87
2022-11-14T05:12:32.247Z,18.77
2022-11-14T05:14:59.221Z,18.47
2022-11-14T05:17:26.587Z,17.30
2022-11-14T05:19:53.650Z,18.67
2022-11-14T05:22:20.967Z,17.50
2022-11-14T05:24:47.838Z,18.03
2022-11-14T05:27:14.795Z,17.90
2022-11-14T05:29:41.755Z,17.30
2022-11-14T05:32:12.342Z,19.10
2022-11-14T05:34:42.172Z,19.50
2022-11-14T05:37:09.058Z,19.57
2022-11-14T05:39:36.192Z,18.90
2022-11-14T05:42:03.218Z,18.77
2022-11-14T05:44:30.373Z,16.60
2022-11-14T05:46:57.367Z,16.70
2022-11-14T05:49:24.297Z,17.77
2022-11-14T05:51:51.233Z,17.90
2022-11-14T05:54:18.301Z,20.53
2022-11-14T05:56:45.188Z,20.47
2022-11-14T05:59:12.183Z,19.70
2022-11-14T06:01:39.099Z,17.83
2022-11-14T06:04:07.235Z,17.93
2022-11-14T06:06:34.417Z,21.47
2022-11-14T06:09:01.413Z,16.83
2022-11-14T06:11:28.329Z,18.07
2022-11-14T06:13:55.271Z,19.43
2022-11-14T06:16:22.257Z,18.57
2022-11-14T06:18:49.787Z,20.07
2022-11-14T06:21:20.048Z,18.03
2022-11-14T06:23:48.061Z,20.47
2022-11-14T06:26:26.047Z,19.90
2022-11-14T06:28:54.345Z,17.80
2022-11-14T06:31:23.047Z,18.53
2022-11-14T06:33:50.687Z,17.87
2022-11-14T06:36:18.209Z,20.50
2022-11-14T06:38:45.484Z,19.80
2022-11-14T06:41:20.012Z,16.80
2022-11-14T06:43:50.354Z,17.13
2022-11-14T06:46:20.822Z,18.37
2022-11-14T06:48:49.963Z,21.40
2022-11-14T06:51:17.725Z,20.90
2022-11-14T06:53:44.864Z,18.60
2022-11-14T06:56:15.477Z,18.20
2022-11-14T06:58:46.252Z,17.37
2022-11-14T07:01:26.263Z,17.83
2022-11-14T07:03:53.515Z,18.73
2022-11-14T07:06:26.747Z,19.70
2022-11-14T07:08:55.795Z,19.50
2022-11-14T07:11:27.964Z,18.77
2022-11-14T07:14:00.497Z,19.40
2022-11-14T07:16:36.163Z,19.67
2022-11-14T07:19:07.307Z,19.53
2022-11-14T07:21:35.675Z,18.03
2022-11-14T07:24:02.701Z,18.77
2022-11-14T07:26:29.633Z,18.87
2022-11-14T07:29:02.060Z,19.13
2022-11-14T07:31:30.208Z,20.20
2022-11-14T07:33:57.388Z,19.40
2022-11-14T07:36:24.658Z,18.33
2022-11-14T07:38:51.664Z,19.03
2022-11-14T07:41:19.512Z,18.30
2022-11-14T07:43:46.965Z,19.33
2022-11-14T07:46:17.360Z,18.60
2022-11-14T07:48:45.312Z,16.97
2022-11-14T07:51:18.596Z,19.40
2022-11-14T07:53:45.730Z,18.80
2022-11-14T07:56:13.293Z,18.83
2022-11-14T07:58:42.283Z,19.40
2022-11-14T08:01:13.368Z,17.53
2022-11-14T08:03:45.384Z,16.60
2022-11-14T08:06:16.531Z,16.63
2022-11-14T08:08:43.928Z,16.60
2022-11-14T08:11:11.902Z,16.20
2022-11-14T08:13:39.142Z,15.80
2022-11-14T08:16:13.296Z,18.73
2022-11-14T08:18:41.656Z,18.77
2022-11-14T08:21:09.227Z,15.60
2022-11-14T08:23:36.438Z,16.40
2022-11-14T08:26:03.842Z,17.33
2022-11-14T08:28:31.228Z,17.10
2022-11-14T08:31:03.146Z,17.00
2022-11-14T08:33:31.083Z,14.57
2022-11-14T08:36:03.492Z,14.73
2022-11-14T08:38:33.475Z,15.27
2022-11-14T08:41:02.095Z,15.67
2022-11-14T08:43:31.316Z,16.27
2022-11-14T08:46:04.017Z,16.33
2022-11-14T08:48:33.265Z,15.67
2022-11-14T08:51:07.733Z,15.50
2022-11-14T08:53:35.548Z,15.90
2022-11-14T08:56:03.137Z,16.53
2022-11-14T08:58:32.648Z,16.00
2022-11-14T09:01:03.493Z,15.83
2022-11-14T09:03:30.780Z,15.50
2022-11-14T09:05:58.171Z,15.33
2022-11-14T09:08:25.537Z,15.47
2022-11-14T09:10:52.509Z,15.40
2022-11-14T09:13:19.855Z,16.00
2022-11-14T09:15:47.469Z,14.40
2022-11-14T09:18:15.455Z,15.20
2022-11-14T09:20:42.436Z,16.03
2022-11-14T09:23:10.982Z,17.07
2022-11-14T09:25:38.791Z,15.13
2022-11-14T09:28:09.536Z,15.87
2022-11-14T09:30:37.707Z,15.07
2022-11-14T09:33:11.484Z,15.80
2022-11-14T09:35:39.252Z,15.77
2022-11-14T09:38:12.262Z,14.73
2022-11-14T09:40:52.263Z,14.60
2022-11-14T09:43:55.793Z,15.57
2022-11-14T09:46:46.279Z,13.83
2022-11-14T09:49:46.345Z,13.13
2022-11-14T09:52:39.174Z,12.97
2022-11-14T09:55:17.931Z,14.20
2022-11-14T09:57:46.479Z,14.23
2022-11-14T10:00:17.681Z,14.90
2022-11-14T10:02:58.152Z,14.90
2022-11-14T10:05:54.458Z,14.80
2022-11-14T10:08:49.242Z,15.27
2022-11-14T10:12:23.732Z,13.43
2022-11-14T10:15:26.587Z,14.73
2022-11-14T10:18:18.243Z,15.17
2022-11-14T10:20:55.573Z,14.27
2022-11-14T10:24:07.061Z,15.37
2022-11-14T10:26:43.528Z,15.57
2022-11-14T10:29:48.348Z,15.40
2022-11-14T10:32:27.478Z,14.80
2022-11-14T10:35:10.364Z,14.63
2022-11-14T10:38:19.614Z,13.77
2022-11-14T10:40:50.979Z,15.00
2022-11-14T10:43:41.197Z,14.33
2022-11-14T10:46:25.433Z,15.53
2022-11-14T10:48:57.507Z,14.60
2022-11-14T10:51:51.742Z,12.30
2022-11-14T10:54:34.371Z,13.00
2022-11-14T10:57:01.552Z,14.23
2022-11-14T10:59:29.594Z,13.83
2022-11-14T11:01:58.869Z,14.37
2022-11-14T11:04:31.521Z,14.23
2022-11-14T11:07:07.761Z,13.40
2022-11-14T11:09:59.304Z,14.00
2022-11-14T11:12:49.277Z,13.40
2022-11-14T11:15:32.875Z,12.57
2022-11-14T11:18:14.493Z,13.87
2022-11-14T11:20:42.754Z,14.13
2022-11-14T11:23:09.743Z,15.13
2022-11-14T11:25:40.407Z,12.57
2022-11-14T11:28:20.654Z,12.40
2022-11-14T11:31:00.626Z,14.93
2022-11-14T11:33:33.886Z,15.20
2022-11-14T11:36:24.028Z,13.70
2022-11-14T11:38:51.233Z,13.33
2022-11-14T11:44:19.398Z,12.70
2022-11-14T11:47:02.480Z,13.50
2022-11-14T11:49:52.965Z,13.57
2022-11-14T11:53:16.348Z,12.83
2022-11-14T11:55:52.552Z,12.30
2022-11-14T11:59:15.303Z,12.03
2022-11-14T12:01:42.287Z,11.50
2022-11-14T12:04:09.490Z,10.73
2022-11-14T12:06:50.407Z,11.40
2022-11-14T12:09:48.718Z,10.80
2022-11-14T12:12:40.732Z,9.97
2022-11-14T12:15:41.383Z,9.60
2022-11-14T12:18:11.047Z,9.87
2022-11-14T12:20:43.898Z,9.45
2022-11-14T12:24:01.863Z,8.53
2022-11-14T12:26:40.969Z,8.97
2022-11-14T12:29:23.996Z,9.40
2022-11-14T12:32:02.409Z,8.90
2022-11-14T12:34:38.984Z,9.27
2022-11-14T12:37:17.512Z,10.07
2022-11-14T12:39:57.880Z,9.47
2022-11-14T12:42:26.097Z,8.67
2022-11-14T12:44:53.294Z,9.00
2022-11-14T12:47:26.576Z,9.27
2022-11-14T12:49:53.494Z,9.00
2022-11-14T12:52:45.301Z,8.40
2022-11-14T12:55:27.444Z,8.23
2022-11-14T12:58:30.759Z,6.77
2022-11-14T13:01:26.145Z,7.03
2022-11-14T13:04:17.775Z,7.10
2022-11-14T13:06:56.644Z,6.23
2022-11-14T13:09:35.143Z,6.77
2022-11-14T13:12:40.616Z,6.10
2022-11-14T13:15:51.543Z,6.07
2022-11-14T13:18:36.812Z,5.30
2022-11-14T13:21:47.380Z,5.50
2022-11-14T13:24:18.330Z,4.90
2022-11-14T13:26:48.806Z,5.00
2022-11-14T13:29:45.130Z,4.93
2022-11-14T13:32:12.360Z,5.37
2022-11-14T13:34:46.626Z,5.50
2022-11-14T13:37:47.494Z,4.57
2022-11-14T13:40:28.827Z,4.77
2022-11-14T13:43:24.448Z,4.23
2022-11-14T13:46:31.866Z,5.30
2022-11-14T13:49:28.728Z,4.30
2022-11-14T13:51:56.329Z,4.70
2022-11-14T13:54:23.873Z,3.90
2022-11-14T13:56:57.470Z,4.87
2022-11-14T13:59:59.855Z,4.97
2022-11-14T14:02:54.080Z,4.07
2022-11-14T14:05:54.334Z,4.80
2022-11-14T14:08:46.683Z,4.40
2022-11-14T14:11:43.258Z,4.50
2022-11-14T14:14:16.291Z,4.30
2022-11-14T14:17:15.950Z,3.93
2022-11-14T14:20:17.780Z,3.80
2022-11-14T14:23:00.416Z,4.70
2022-11-14T14:25:59.028Z,4.00
2022-11-14T14:28:49.349Z,4.20
2022-11-14T14:31:20.231Z,4.67
2022-11-14T14:33:51.435Z,4.87
2022-11-14T14:36:19.958Z,4.40
2022-11-14T14:38:48.025Z,4.70
2022-11-14T14:41:18.668Z,4.03
2022-11-14T14:43:54.780Z,5.00
2022-11-14T14:46:31.853Z,5.00
2022-11-14T14:49:02.688Z,5.90
2022-11-14T14:51:33.097Z,5.83
2022-11-14T14:54:00.634Z,5.10
2022-11-14T14:56:28.895Z,5.27
2022-11-14T14:58:56.739Z,4.40
2022-11-14T15:01:33.110Z,5.10
2022-11-14T15:04:09.300Z,6.10
2022-11-14T15:06:41.355Z,5.47
2022-11-14T15:09:26.832Z,6.43
2022-11-14T15:11:59.234Z,6.27
2022-11-14T15:14:31.976Z,5.80
2022-11-14T15:17:00.510Z,8.30
2022-11-14T15:19:46.039Z,7.50
2022-11-14T15:22:15.955Z,7.50
2022-11-14T15:24:42.956Z,6.47
2022-11-14T15:27:18.242Z,7.00
2022-11-14T15:29:51.588Z,7.50
2022-11-14T15:32:22.012Z,8.97
2022-11-14T15:35:26.159Z,12.37
2022-11-14T15:38:42.485Z,12.80
2022-11-14T15:41:23.963Z,9.93
2022-11-14T15:44:01.836Z,10.73
2022-11-14T15:47:25.975Z,12.00
2022-11-14T15:50:26.971Z,14.30
2022-11-14T15:53:02.993Z,12.57
2022-11-14T15:55:30.194Z,14.37
2022-11-14T15:58:21.327Z,14.10
2022-11-14T16:00:53.731Z,14.70
2022-11-14T16:03:23.059Z,11.20
2022-11-14T16:05:50.042Z,10.67
2022-11-14T16:08:17.081Z,11.90
2022-11-14T16:10:44.149Z,12.87
2022-11-14T16:13:11.469Z,14.57
2022-11-14T16:15:38.875Z,14.50
2022-11-14T16:18:06.354Z,23.83
2022-11-14T16:20:38.285Z,22.03
2022-11-14T16:23:06.359Z,17.97
2022-11-14T16:25:33.634Z,19.27
2022-11-14T16:28:00.580Z,19.70
2022-11-14T16:30:27.592Z,14.27
2022-11-14T16:32:54.550Z,14.57
2022-11-14T16:35:25.246Z,16.80
2022-11-14T16:37:55.209Z,14.80
2022-11-14T16:40:27.836Z,17.20
2022-11-14T16:42:57.350Z,17.40
2022-11-14T16:45:26.584Z,17.80
2022-11-14T16:47:53.961Z,17.43
2022-11-14T16:50:20.991Z,20.37
2022-11-14T16:52:49.420Z,23.53
2022-11-14T16:55:16.516Z,15.60
2022-11-14T16:57:43.524Z,15.90
2022-11-14T17:00:13.564Z,16.43
2022-11-14T17:02:41.782Z,13.53
2022-11-14T17:05:09.355Z,15.03
2022-11-14T17:07:36.347Z,15.50
2022-11-14T17:10:05.106Z,18.30
2022-11-14T17:12:34.276Z,16.63
2022-11-14T17:15:01.309Z,16.70
2022-11-14T17:17:29.020Z,15.33
2022-11-14T17:19:55.956Z,15.03
2022-11-14T17:22:23.442Z,15.13
2022-11-14T17:24:50.445Z,16.23
2022-11-14T17:27:17.640Z,15.13
2022-11-14T17:29:44.793Z,14.10
2022-11-14T17:32:12.069Z,13.23
2022-11-14T17:34:39.085Z,12.63
2022-11-14T17:37:06.110Z,13.17
2022-11-14T17:39:35.262Z,12.60
2022-11-14T17:42:02.274Z,13.40
2022-11-14T17:44:29.386Z,14.93
2022-11-14T17:46:56.464Z,14.87
2022-11-14T17:49:23.540Z,14.07
2022-11-14T17:51:50.548Z,14.53
2022-11-14T17:54:17.517Z,15.03
2022-11-14T17:56:49.619Z,15.63
2022-11-14T17:59:20.614Z,20.00
2022-11-14T18:01:47.860Z,15.50
2022-11-14T18:04:14.844Z,16.23
2022-11-14T18:06:48.574Z,14.47
2022-11-14T18:09:15.623Z,14.70
2022-11-14T18:11:42.593Z,14.73
2022-11-14T18:14:09.554Z,15.47
2022-11-14T18:17:05.558Z,16.40
2022-11-14T18:19:24.911Z,15.60
2022-11-14T18:21:53.884Z,18.03
2022-11-14T18:24:21.878Z,17.40
2022-11-14T18:26:48.985Z,16.53
2022-11-14T18:29:16.208Z,17.23
2022-11-14T18:31:43.229Z,15.87
2022-11-14T18:34:10.819Z,16.97
2022-11-14T18:36:37.845Z,16.13
2022-11-14T18:39:04.870Z,17.43
2022-11-14T18:41:31.908Z,16.77
2022-11-14T18:43:59.309Z,16.30
2022-11-14T18:46:26.779Z,17.77
2022-11-14T18:48:57.272Z,18.50
2022-11-14T18:51:29.803Z,19.17
2022-11-14T18:53:59.618Z,17.50
2022-11-14T18:56:27.172Z,18.20
2022-11-14T18:58:56.419Z,16.97
2022-11-14T19:01:30.391Z,17.77
2022-11-14T19:04:02.888Z,16.73
2022-11-14T19:06:35.705Z,18.13
2022-11-14T19:09:11.619Z,17.43
2022-11-14T19:11:57.977Z,19.30
2022-11-14T19:14:25.068Z,17.00
2022-11-14T19:16:52.050Z,18.10
2022-11-14T19:19:18.956Z,17.87
2022-11-14T19:21:50.676Z,17.87
2022-11-14T19:24:17.978Z,17.83
2022-11-14T19:26:45.225Z,18.77
2022-11-14T19:29:15.359Z,17.83
2022-11-14T19:31:47.643Z,17.87
2022-11-14T19:34:17.479Z,17.83
2022-11-14T19:37:03.746Z,16.67
2022-11-14T19:39:33.835Z,23.40
2022-11-14T19:42:03.923Z,20.77
2022-11-14T19:44:36.296Z,17.80
2022-11-14T19:47:04.255Z,19.43
2022-11-14T19:49:32.292Z,19.60
2022-11-14T19:51:59.430Z,20.57
2022-11-14T19:54:27.252Z,20.00
2022-11-14T19:56:54.270Z,19.90
2022-11-14T19:59:26.868Z,19.30
2022-11-14T20:02:00.256Z,19.10
2022-11-14T20:04:33.252Z,18.37
2022-11-14T20:07:06.852Z,19.77
2022-11-14T20:09:37.127Z,19.57
2022-11-14T20:12:05.812Z,20.70
2022-11-14T20:14:38.384Z,22.20
2022-11-14T20:17:08.290Z,18.20
2022-11-14T20:19:36.123Z,20.00
2022-11-14T20:22:07.402Z,21.20
2022-11-14T20:24:36.263Z,20.43
2022-11-14T20:27:04.624Z,20.63
2022-11-14T20:29:36.719Z,20.07
2022-11-14T20:32:14.504Z,21.30
2022-11-14T20:34:43.976Z,20.73
2022-11-14T20:37:12.122Z,18.47
2022-11-14T20:39:40.829Z,21.10
2022-11-14T20:42:08.809Z,20.50
2022-11-14T20:44:42.870Z,19.40
2022-11-14T20:47:11.340Z,20.13
2022-11-14T20:49:38.821Z,19.53
2022-11-14T20:52:06.629Z,20.53
2022-11-14T20:54:34.728Z,20.80
2022-11-14T20:57:01.710Z,22.10
2022-11-14T20:59:28.883Z,21.60
2022-11-14T21:01:56.818Z,21.87
2022-11-14T21:04:24.790Z,23.07
2022-11-14T21:06:53.319Z,21.37
2022-11-14T21:09:23.581Z,19.23
2022-11-14T21:11:52.360Z,18.40
2022-11-14T21:14:22.955Z,20.27
2022-11-14T21:16:50.133Z,20.23
2022-11-14T21:19:19.872Z,19.57
2022-11-14T21:21:47.635Z,19.60
2022-11-14T21:24:15.783Z,19.87
2022-11-14T21:26:42.955Z,20.00
2022-11-14T21:29:15.514Z,20.17
2022-11-14T21:31:47.377Z,19.30
2022-11-14T21:34:21.576Z,21.43
2022-11-14T21:36:53.734Z,19.90
2022-11-14T21:39:23.559Z,17.43
2022-11-14T21:41:51.709Z,19.90
2022-11-14T21:44:19.179Z,19.00
2022-11-14T21:46:49.874Z,19.43
2022-11-14T21:49:16.976Z,19.17
2022-11-14T21:51:43.968Z,17.07
2022-11-14T21:54:11.269Z,18.20
2022-11-14T21:56:38.277Z,19.20
2022-11-14T21:59:15.587Z,18.07
2022-11-14T22:02:05.713Z,17.23
2022-11-14T22:04:33.766Z,19.43
2022-11-14T22:07:08.669Z,19.37
2022-11-14T22:09:39.885Z,19.10
2022-11-14T22:12:08.739Z,18.77
2022-11-14T22:14:36.015Z,18.77
2022-11-14T22:17:02.949Z,21.27
2022-11-14T22:19:29.916Z,20.60
2022-11-14T22:21:56.966Z,19.73
2022-11-14T22:24:24.069Z,21.90
2022-11-14T22:26:51.016Z,20.93
2022-11-14T22:29:18.015Z,22.33
2022-11-14T22:31:45.358Z,20.93
2022-11-14T22:34:12.683Z,21.67
2022-11-14T22:36:39.568Z,21.13
2022-11-14T22:39:06.754Z,22.20
2022-11-14T22:41:33.970Z,22.77
2022-11-14T22:44:01.949Z,21.70
2022-11-14T22:46:29.694Z,18.57
2022-11-14T22:48:56.783Z,19.57
2022-11-14T22:51:26.516Z,21.10
2022-11-14T22:53:58.193Z,21.87
2022-11-14T22:56:29.083Z,22.40
2022-11-14T22:58:57.444Z,25.13
2022-11-14T23:01:27.528Z,21.03
2022-11-14T23:03:58.208Z,23.67
2022-11-14T23:06:26.405Z,24.10
2022-11-14T23:08:53.926Z,22.60
2022-11-14T23:11:27.928Z,22.57
2022-11-14T23:13:57.548Z,20.97
2022-11-14T23:16:28.712Z,21.13
2022-11-14T23:18:59.420Z,21.40
2022-11-14T23:21:33.974Z,21.90
2022-11-14T23:24:06.113Z,21.97
2022-11-14T23:26:34.388Z,21.93
2022-11-14T23:29:01.389Z,21.40
2022-11-14T23:31:28.818Z,22.07
2022-11-14T23:33:58.355Z,20.17
2022-11-14T23:36:26.143Z,19.23
2022-11-14T23:38:54.298Z,20.40
2022-11-14T23:41:28.043Z,21.60
2022-11-14T23:43:55.229Z,20.77
2022-11-14T23:46:22.308Z,19.53
2022-11-14T23:48:49.374Z,20.77
2022-11-14T23:51:17.718Z,20.67
2022-11-14T23:53:44.765Z,19.77
2022-11-14T23:56:14.443Z,20.87
2022-11-14T23:58:42.528Z,21.00
